Time;durP1;ratioP1;P1;durP2;ratioP2;P2;SDS_P1;SDS_P2;PMS_P1;PMS_P2;Temp;Humidity;BMP_temperature;BMP_pressure;BME280_temperature;BME280_humidity;BME280_pressure;Samples;Min_cycle;Max_cycle;Signal;HPM_P1;HPM_P2
2023/09/04 00:01:44;;;;;;;6.32;3.20;;;;;;;-143.21;56.37;71562.59;5067643;28;20205;-81
2023/09/04 00:04:11;;;;;;;7.30;3.05;;;;;;;-143.21;57.21;71576.47;5065875;28;20245;-80
2023/09/04 00:06:38;;;;;;;7.10;3.30;;;;;;;-143.21;59.77;71604.22;5065934;28;20790;-79
2023/09/04 00:09:05;;;;;;;9.10;3.10;;;;;;;-143.21;61.70;71653.78;5069054;28;20205;-80
2023/09/04 00:11:32;;;;;;;8.57;3.45;;;;;;;-143.21;64.07;71695.44;5068293;28;20217;-80
2023/09/04 00:13:59;;;;;;;9.77;3.75;;;;;;;-143.21;66.78;71713.28;5066418;28;20209;-80
2023/09/04 00:16:25;;;;;;;14.55;4.47;;;;;;;-143.21;67.91;71727.16;5065856;28;20205;-81
2023/09/04 00:18:54;;;;;;;8.88;4.00;;;;;;;-143.21;68.93;71731.13;5067780;28;20198;-81
2023/09/04 00:21:22;;;;;;;11.10;3.78;;;;;;;-143.21;67.86;71752.94;5068640;28;20205;-81
2023/09/04 00:23:49;;;;;;;6.40;4.03;;;;;;;-143.21;68.94;71737.06;5068475;28;20291;-80
2023/09/04 00:26:16;;;;;;;9.30;3.90;;;;;;;-143.21;69.12;71723.19;5067155;28;20270;-83
2023/09/04 00:28:43;;;;;;;8.45;4.20;;;;;;;-143.21;69.64;71729.13;5066618;28;20598;-81
2023/09/04 00:31:09;;;;;;;7.28;3.80;;;;;;;-143.21;69.79;71723.19;5072794;28;20267;-81
2023/09/04 00:33:36;;;;;;;5.10;3.42;;;;;;;-143.21;70.28;71745.00;5068117;28;20213;-81
2023/09/04 00:36:05;;;;;;;8.80;4.07;;;;;;;-143.21;71.23;71758.88;5068031;28;20232;-82
2023/09/04 00:38:31;;;;;;;6.13;3.90;;;;;;;-143.21;71.18;71760.88;5069081;28;20216;-80
2023/09/04 00:40:58;;;;;;;7.75;4.05;;;;;;;-143.21;71.38;71770.78;5069316;28;20205;-81
2023/09/04 00:43:25;;;;;;;7.10;3.40;;;;;;;-143.21;71.36;71774.75;5068709;28;20351;-80
2023/09/04 00:45:52;;;;;;;6.05;3.83;;;;;;;-143.21;70.68;71746.97;5068452;28;20566;-81
2023/09/04 00:48:21;;;;;;;6.20;3.70;;;;;;;-143.21;71.18;71746.97;5072265;28;20193;-82
2023/09/04 00:50:48;;;;;;;8.85;4.68;;;;;;;-143.21;73.42;71737.06;5069211;28;20206;-81
2023/09/04 00:53:17;;;;;;;10.02;4.10;;;;;;;-143.21;73.38;71735.09;5069262;28;20197;-81
2023/09/04 00:55:44;;;;;;;7.45;4.10;;;;;;;-143.21;75.44;71729.13;5068997;28;20699;-81
2023/09/04 00:58:11;;;;;;;7.93;3.83;;;;;;;-143.21;72.93;71729.13;5069077;28;20209;-81
2023/09/04 01:00:38;;;;;;;8.85;3.97;;;;;;;-143.21;73.24;71723.19;5069346;28;20205;-81
2023/09/04 01:03:05;;;;;;;7.72;4.20;;;;;;;-143.21;75.07;71703.34;5069353;28;20233;-81
2023/09/04 01:05:32;;;;;;;5.57;4.00;;;;;;;-143.21;73.78;71683.53;5074023;28;20201;-81
2023/09/04 01:08:00;;;;;;;7.28;3.80;;;;;;;-143.21;73.80;71669.66;5072463;28;20197;-81
2023/09/04 01:10:35;;;;;;;8.38;4.00;;;;;;;-143.21;72.42;71673.63;5072301;28;20201;-81
2023/09/04 01:13:06;;;;;;;4.93;3.83;;;;;;;-143.21;72.37;71663.72;5072513;28;20690;-81
2023/09/04 01:15:34;;;;;;;6.43;3.97;;;;;;;-143.21;71.97;71663.72;5072694;28;20214;-82
2023/09/04 01:18:03;;;;;;;4.85;3.80;;;;;;;-143.21;72.87;71661.72;5071647;28;20201;-80
2023/09/04 01:20:32;;;;;;;6.22;3.83;;;;;;;-143.21;73.96;71673.63;5072266;28;20292;-80
2023/09/04 01:23:00;;;;;;;7.20;4.30;;;;;;;-143.21;74.87;71673.63;5073638;28;20556;-80
2023/09/04 01:25:36;;;;;;;7.80;4.20;;;;;;;-143.21;75.29;71679.56;5072135;28;20633;-80
2023/09/04 01:28:10;;;;;;;6.47;4.22;;;;;;;-143.21;75.85;71685.50;5071771;28;20668;-80
2023/09/04 01:30:48;;;;;;;5.18;4.15;;;;;;;-143.21;75.34;71685.50;5072292;28;20248;-80
2023/09/04 01:33:20;;;;;;;5.70;4.45;;;;;;;-143.21;75.79;71689.47;5071788;28;20240;-80
2023/09/04 01:35:51;;;;;;;6.95;4.30;;;;;;;-143.21;75.17;71687.50;5068790;28;20672;-79
2023/09/04 01:38:18;;;;;;;9.23;4.30;;;;;;;-143.21;74.54;71699.41;5068923;28;20229;-80
2023/09/04 01:40:45;;;;;;;4.85;4.18;;;;;;;-143.21;74.31;71717.25;5068802;28;20201;-80
2023/09/04 01:43:12;;;;;;;6.30;3.90;;;;;;;-143.21;73.97;71715.25;5072252;28;20220;-81
2023/09/04 01:45:38;;;;;;;7.07;4.28;;;;;;;-143.21;73.51;71729.13;5072440;28;20228;-81
2023/09/04 01:48:06;;;;;;;4.13;3.72;;;;;;;-143.21;75.55;71745.00;5071487;28;20217;-81
2023/09/04 01:50:33;;;;;;;9.18;4.40;;;;;;;-143.21;75.70;71762.84;5071885;28;20259;-80
2023/09/04 01:53:01;;;;;;;4.95;4.28;;;;;;;-143.21;75.75;71774.75;5070806;28;20216;-79
2023/09/04 01:55:28;;;;;;;5.28;4.38;;;;;;;-143.21;76.74;71776.72;5069434;28;20232;-80
2023/09/04 01:57:55;;;;;;;5.38;4.13;;;;;;;-143.21;76.54;71784.66;5070427;28;20631;-80
2023/09/04 02:00:22;;;;;;;7.55;4.20;;;;;;;-143.21;76.47;71792.59;5070844;28;20676;-80
2023/09/04 02:02:49;;;;;;;5.93;4.03;;;;;;;-143.21;77.01;71794.56;5073477;28;20219;-81
2023/09/04 02:05:16;;;;;;;6.20;3.95;;;;;;;-143.21;74.41;71800.53;5071685;28;20197;-80
2023/09/04 02:07:43;;;;;;;4.63;4.05;;;;;;;-143.21;74.30;71794.56;5071757;28;20210;-80
2023/09/04 02:10:11;;;;;;;4.45;3.92;;;;;;;-143.21;73.63;71796.56;5071231;28;20205;-80
2023/09/04 02:12:38;;;;;;;4.82;3.88;;;;;;;-143.21;73.23;71796.56;5071739;28;20292;-79
2023/09/04 02:15:06;;;;;;;6.78;4.30;;;;;;;-143.21;71.85;71798.53;5070404;28;20245;-79
2023/09/04 02:17:33;;;;;;;5.07;4.20;;;;;;;-143.21;72.04;71812.41;5071859;28;20241;-80
2023/09/04 02:20:00;;;;;;;7.40;4.53;;;;;;;-143.21;71.02;71812.41;5072961;28;20201;-79
2023/09/04 02:22:27;;;;;;;4.35;3.90;;;;;;;-143.21;70.63;71830.25;5071992;28;20749;-80
2023/09/04 02:24:54;;;;;;;5.35;3.97;;;;;;;-143.21;70.63;71830.25;5072648;28;20225;-79
2023/09/04 02:27:22;;;;;;;5.82;4.40;;;;;;;-143.21;70.96;71842.16;5073044;28;20205;-80
2023/09/04 02:29:49;;;;;;;5.68;4.57;;;;;;;-143.21;71.26;71848.09;5073207;28;20202;-80
2023/09/04 02:32:16;;;;;;;5.20;4.47;;;;;;;-143.21;71.40;71844.16;5072397;28;20308;-79
2023/09/04 02:34:43;;;;;;;5.07;4.57;;;;;;;-143.21;71.32;71848.09;5071406;28;20201;-80
2023/09/04 02:37:10;;;;;;;5.80;4.50;;;;;;;-143.21;71.49;71850.09;5071547;28;20248;-79
2023/09/04 02:39:36;;;;;;;5.47;4.75;;;;;;;-143.21;71.73;71858.03;5070363;28;20217;-79
2023/09/04 02:42:03;;;;;;;5.65;4.80;;;;;;;-143.21;72.28;71860.00;5070847;28;20204;-80
2023/09/04 02:44:31;;;;;;;8.43;4.80;;;;;;;-143.21;71.63;71854.06;5070589;28;20209;-80
2023/09/04 02:46:59;;;;;;;7.60;4.70;;;;;;;-143.21;72.52;71858.03;5070697;28;20284;-80
2023/09/04 02:49:25;;;;;;;5.53;4.93;;;;;;;-143.21;71.83;71862.00;5070763;28;20194;-80
2023/09/04 02:51:52;;;;;;;5.72;4.97;;;;;;;-143.21;72.15;71854.06;5070400;28;20205;-79
2023/09/04 02:54:19;;;;;;;5.43;4.85;;;;;;;-143.21;71.22;71838.19;5071697;28;20291;-81
2023/09/04 02:56:46;;;;;;;9.55;4.93;;;;;;;-143.21;70.47;71824.31;5073113;28;20228;-79
2023/09/04 02:59:13;;;;;;;5.32;4.80;;;;;;;-143.21;70.28;71812.41;5070358;28;20561;-80
2023/09/04 03:01:41;;;;;;;5.60;4.55;;;;;;;-143.21;70.33;71806.47;5070139;28;20637;-81
2023/09/04 03:04:08;;;;;;;6.30;4.20;;;;;;;-143.21;69.05;71828.28;5069649;28;20601;-81
2023/09/04 03:06:35;;;;;;;4.93;4.30;;;;;;;-143.21;68.47;71848.09;5070051;28;20205;-80
2023/09/04 03:09:02;;;;;;;5.97;4.00;;;;;;;-143.21;68.92;71850.09;5069393;28;20220;-80
2023/09/04 03:11:28;;;;;;;5.17;4.03;;;;;;;-143.21;69.67;71865.97;5069775;28;20571;-79
2023/09/04 03:13:55;;;;;;;4.93;4.00;;;;;;;-143.21;69.76;71867.94;5072214;28;20205;-79
2023/09/04 03:16:22;;;;;;;7.63;4.37;;;;;;;-143.21;69.39;71869.91;5069609;28;20220;-80
2023/09/04 03:18:50;;;;;;;4.47;3.80;;;;;;;-143.21;69.27;71873.88;5069021;28;20701;-79
2023/09/04 03:21:17;;;;;;;6.07;4.10;;;;;;;-143.21;69.61;71863.97;5065733;28;20212;-79
2023/09/04 03:23:46;;;;;;;6.37;3.80;;;;;;;-143.21;69.40;71863.97;5068534;28;20201;-80
2023/09/04 03:26:12;;;;;;;6.43;4.20;;;;;;;-143.21;69.39;71865.97;5067729;28;20202;-80
2023/09/04 03:28:39;;;;;;;6.37;4.00;;;;;;;-143.21;70.16;71869.91;5068830;28;20216;-80
2023/09/04 03:31:12;;;;;;;4.60;4.20;;;;;;;-143.21;70.32;71869.91;5069474;28;20221;-80
2023/09/04 03:33:39;;;;;;;5.18;4.32;;;;;;;-143.21;70.12;71887.78;5074648;28;20211;-80
2023/09/04 03:36:09;;;;;;;5.00;4.33;;;;;;;-143.21;71.07;71891.72;5068980;28;20896;-79
2023/09/04 03:38:36;;;;;;;5.47;4.63;;;;;;;-143.21;70.40;71889.75;5069132;28;20300;-81
2023/09/04 03:41:03;;;;;;;6.90;4.40;;;;;;;-143.21;71.25;71907.59;5068673;28;20212;-79
2023/09/04 03:43:30;;;;;;;5.37;4.60;;;;;;;-143.21;71.24;71909.56;5068408;28;20679;-79
2023/09/04 03:45:57;;;;;;;6.50;4.47;;;;;;;-143.21;71.33;71913.53;5068625;28;20256;-79
2023/09/04 03:48:24;;;;;;;5.03;4.47;;;;;;;-143.21;71.75;71929.41;5068665;28;20285;-78
2023/09/04 03:50:50;;;;;;;5.00;4.20;;;;;;;-143.21;72.03;71937.34;5069009;28;20258;-78
2023/09/04 03:53:19;;;;;;;6.33;4.80;;;;;;;-143.21;72.66;71949.25;5068920;28;20687;-78
2023/09/04 03:55:45;;;;;;;6.70;4.30;;;;;;;-143.21;72.83;71949.25;5065372;28;20224;-79
2023/09/04 03:58:12;;;;;;;6.43;4.80;;;;;;;-143.21;73.25;71951.22;5068675;28;20278;-78
2023/09/04 04:00:39;;;;;;;6.37;4.93;;;;;;;-143.21;73.90;71959.16;5069019;28;20209;-81
2023/09/04 04:03:06;;;;;;;5.50;4.23;;;;;;;-143.21;74.46;71961.13;5068502;28;20919;-80
2023/09/04 04:05:33;;;;;;;7.13;5.00;;;;;;;-143.21;74.62;71967.09;5069826;28;20206;-80
2023/09/04 04:07:59;;;;;;;5.53;4.73;;;;;;;-143.21;74.52;71961.13;5069426;28;20201;-80
2023/09/04 04:10:27;;;;;;;7.80;4.90;;;;;;;-143.21;74.37;71965.09;5068974;28;20255;-80
2023/09/04 04:12:54;;;;;;;8.57;5.20;;;;;;;-143.21;74.87;71967.09;5069371;28;20275;-80
2023/09/04 04:15:22;;;;;;;10.10;5.13;;;;;;;-143.21;74.99;71969.06;5069159;28;20209;-81
2023/09/04 04:17:48;;;;;;;6.33;5.17;;;;;;;-143.21;75.21;71969.06;5069351;28;20205;-81
2023/09/04 04:20:16;;;;;;;6.07;4.83;;;;;;;-143.21;75.56;71978.97;5069284;28;20262;-79
2023/09/04 04:22:43;;;;;;;5.80;4.97;;;;;;;-143.21;75.58;71975.00;5069076;28;20205;-79
2023/09/04 04:25:10;;;;;;;6.80;5.30;;;;;;;-143.21;75.20;71977.00;5068640;28;20212;-80
2023/09/04 04:27:39;;;;;;;6.47;5.20;;;;;;;-143.21;75.09;71980.97;5068640;28;21124;-80
2023/09/04 04:30:08;;;;;;;10.50;4.97;;;;;;;-143.21;74.11;71971.06;5068862;28;20209;-80
2023/09/04 04:32:35;;;;;;;6.90;5.07;;;;;;;-143.21;74.00;71975.00;5068857;28;20201;-79
2023/09/04 04:35:02;;;;;;;7.20;4.90;;;;;;;-143.21;73.63;71955.19;5068314;28;20661;-79
2023/09/04 04:37:29;;;;;;;4.63;4.13;;;;;;;-143.21;73.04;71957.16;5070247;28;20252;-80
2023/09/04 04:39:56;;;;;;;5.60;4.40;;;;;;;-143.21;73.33;71975.00;5071625;28;20197;-79
2023/09/04 04:42:25;;;;;;;7.60;4.10;;;;;;;-143.21;73.57;71982.94;5071960;28;20717;-78
2023/09/04 04:44:56;;;;;;;4.73;4.07;;;;;;;-143.21;73.12;71978.97;5072243;28;20625;-78
2023/09/04 04:47:23;;;;;;;5.73;4.20;;;;;;;-143.21;73.31;71977.00;5071764;28;20212;-78
2023/09/04 04:49:49;;;;;;;4.43;3.70;;;;;;;-143.21;72.71;71988.91;5071351;28;20205;-78
2023/09/04 04:52:16;;;;;;;5.10;4.00;;;;;;;-143.21;73.44;71990.88;5071353;28;20205;-78
2023/09/04 04:54:43;;;;;;;4.20;3.80;;;;;;;-143.21;72.99;71982.94;5071374;28;20561;-78
2023/09/04 04:57:10;;;;;;;5.87;3.83;;;;;;;-143.21;72.75;71978.97;5071195;28;20229;-78
2023/09/04 04:59:37;;;;;;;5.63;3.70;;;;;;;-143.21;72.62;71984.94;5072180;28;20236;-78
2023/09/04 05:02:05;;;;;;;8.03;3.57;;;;;;;-143.21;72.78;71986.91;5071749;28;20263;-79
2023/09/04 05:04:34;;;;;;;4.03;3.60;;;;;;;-143.21;72.40;71984.94;5072076;28;20221;-78
2023/09/04 05:07:03;;;;;;;6.13;3.50;;;;;;;-143.21;72.39;71990.88;5072239;28;20726;-79
2023/09/04 05:09:29;;;;;;;3.93;3.50;;;;;;;-143.21;72.37;71990.88;5071606;28;20205;-78
2023/09/04 05:11:56;;;;;;;5.40;3.50;;;;;;;-143.21;72.60;71998.81;5071754;28;20206;-79
2023/09/04 05:14:24;;;;;;;3.50;3.20;;;;;;;-143.21;72.89;72004.75;5069753;28;20271;-79
2023/09/04 05:16:51;;;;;;;3.90;3.50;;;;;;;-143.21;72.13;71996.81;5071554;28;20197;-80
2023/09/04 05:19:19;;;;;;;4.17;3.60;;;;;;;-143.21;71.54;71986.91;5068572;28;20201;-79
2023/09/04 05:21:46;;;;;;;5.60;3.57;;;;;;;-143.21;71.50;71984.94;5068229;28;20212;-79
2023/09/04 05:24:13;;;;;;;4.00;3.60;;;;;;;-143.21;71.92;71996.81;5071659;28;20304;-79
2023/09/04 05:26:39;;;;;;;4.83;3.90;;;;;;;-143.21;71.11;71996.81;5072002;28;20228;-80
2023/09/04 05:29:06;;;;;;;4.63;3.47;;;;;;;-143.21;70.92;71992.88;5071809;28;20229;-80
2023/09/04 05:31:33;;;;;;;6.73;3.80;;;;;;;-143.21;71.02;72002.78;5071873;28;20204;-80
2023/09/04 05:34:00;;;;;;;4.07;3.67;;;;;;;-143.21;70.92;72004.75;5071870;28;20217;-79
2023/09/04 05:36:28;;;;;;;4.17;3.27;;;;;;;-143.21;71.13;71998.81;5071615;28;20619;-80
2023/09/04 05:38:55;;;;;;;4.40;3.80;;;;;;;-143.21;71.31;71994.84;5071652;28;20205;-80
2023/09/04 05:41:22;;;;;;;4.83;4.33;;;;;;;-143.21;71.16;71990.88;5071821;28;20196;-80
2023/09/04 05:43:49;;;;;;;8.00;4.17;;;;;;;-143.21;71.05;71969.06;5071790;28;20210;-80
2023/09/04 05:46:16;;;;;;;4.80;3.80;;;;;;;-143.21;69.57;71941.31;5071282;28;20221;-81
2023/09/04 05:48:42;;;;;;;5.27;3.97;;;;;;;-143.21;69.71;71957.16;5071050;28;20600;-80
2023/09/04 05:51:09;;;;;;;6.00;3.90;;;;;;;-143.21;70.31;71955.19;5070618;28;20220;-79
2023/09/04 05:53:37;;;;;;;4.63;4.13;;;;;;;-143.21;69.98;71955.19;5071161;28;20205;-80
2023/09/04 05:56:06;;;;;;;4.67;4.03;;;;;;;-143.21;69.66;71949.25;5071097;28;20197;-80
2023/09/04 05:58:33;;;;;;;4.00;3.60;;;;;;;-143.21;68.97;71943.28;5071556;28;20193;-80
2023/09/04 06:01:00;;;;;;;4.20;3.80;;;;;;;-143.21;69.57;71963.13;5071679;28;20263;-81
2023/09/04 06:03:27;;;;;;;4.73;3.97;;;;;;;-143.21;69.58;71978.97;5071053;28;20232;-80
2023/09/04 06:05:54;;;;;;;7.03;4.07;;;;;;;-143.21;70.16;71978.97;5071275;28;20217;-81
2023/09/04 06:08:21;;;;;;;4.77;4.20;;;;;;;-143.21;69.87;71988.91;5071316;28;20210;-82
2023/09/04 06:10:49;;;;;;;4.40;4.00;;;;;;;-143.21;69.96;71986.91;5071977;28;20205;-81
2023/09/04 06:13:16;;;;;;;4.97;4.47;;;;;;;-143.21;70.26;71986.91;5071676;28;20201;-82
2023/09/04 06:15:43;;;;;;;4.57;4.00;;;;;;;-143.21;70.47;71990.88;5071319;28;20205;-81
2023/09/04 06:18:10;;;;;;;4.70;4.20;;;;;;;-143.21;70.73;71996.81;5069917;28;20201;-82
2023/09/04 06:20:37;;;;;;;4.77;4.27;;;;;;;-143.21;70.89;71990.88;5070109;28;20235;-81
2023/09/04 06:23:04;;;;;;;4.70;4.20;;;;;;;-143.21;69.72;71967.09;5069887;28;20200;-81
2023/09/04 06:25:30;;;;;;;5.10;4.00;;;;;;;-143.21;69.17;71945.28;5070927;28;20212;-81
2023/09/04 06:27:59;;;;;;;4.20;3.80;;;;;;;-143.21;68.32;71941.31;5070258;28;20228;-82
2023/09/04 06:30:25;;;;;;;9.43;4.63;;;;;;;-143.21;68.20;71947.25;5071483;28;20274;-82
2023/09/04 06:32:56;;;;;;;7.20;4.50;;;;;;;-143.21;68.40;71959.16;5068167;28;20209;-82
2023/09/04 06:35:26;;;;;;;6.13;4.60;;;;;;;-143.21;68.69;71977.00;5070256;28;20193;-82
2023/09/04 06:37:52;;;;;;;5.50;4.20;;;;;;;-143.21;68.72;71978.97;5070061;28;20598;-81
2023/09/04 06:40:22;;;;;;;6.77;3.93;;;;;;;-143.21;69.02;71990.88;5068686;28;20216;-82
2023/09/04 06:42:49;;;;;;;5.03;4.10;;;;;;;-143.21;69.26;71984.94;5069850;28;20276;-81
2023/09/04 06:45:17;;;;;;;4.90;4.23;;;;;;;-143.21;68.51;71978.97;5070631;28;20293;-81
2023/09/04 06:47:44;;;;;;;5.97;4.40;;;;;;;-143.21;68.36;71978.97;5066696;28;20217;-81
2023/09/04 06:50:11;;;;;;;6.30;4.63;;;;;;;-143.21;68.20;71969.06;5069497;28;20210;-81
2023/09/04 06:52:38;;;;;;;6.00;5.00;;;;;;;-143.21;68.19;71969.06;5069661;28;20766;-81
2023/09/04 06:55:06;;;;;;;6.23;4.87;;;;;;;-143.21;68.38;71980.97;5070169;28;20208;-81
2023/09/04 06:57:33;;;;;;;4.70;4.30;;;;;;;-143.21;68.61;71978.97;5069621;28;20683;-80
2023/09/04 07:00:06;;;;;;;8.17;5.03;;;;;;;-143.21;68.62;71969.06;5069616;28;20318;-81
2023/09/04 07:02:36;;;;;;;8.57;4.50;;;;;;;-143.21;68.21;71957.16;5070226;28;20651;-79
2023/09/04 07:05:04;;;;;;;5.73;4.63;;;;;;;-143.21;67.93;71959.16;5069624;28;20237;-81
2023/09/04 07:07:31;;;;;;;4.77;4.27;;;;;;;-143.21;67.58;71959.16;5069915;28;20308;-81
2023/09/04 07:09:58;;;;;;;5.07;4.57;;;;;;;-143.21;67.80;71955.19;5069578;28;20225;-82
2023/09/04 07:12:24;;;;;;;10.80;4.63;;;;;;;-143.21;68.20;71953.19;5069674;28;20263;-82
2023/09/04 07:14:51;;;;;;;5.20;4.70;;;;;;;-143.21;67.85;71941.31;5069468;28;20561;-80
2023/09/04 07:17:18;;;;;;;5.87;4.53;;;;;;;-143.21;66.77;71935.34;5066371;28;20271;-79
2023/09/04 07:19:46;;;;;;;7.87;4.77;;;;;;;-143.21;66.82;71947.25;5070074;28;20235;-80
2023/09/04 07:22:13;;;;;;;5.57;4.70;;;;;;;-143.21;67.02;71957.16;5069730;28;20213;-80
2023/09/04 07:24:40;;;;;;;5.97;4.73;;;;;;;-143.21;67.48;71947.25;5071524;28;20636;-80
2023/09/04 07:27:06;;;;;;;9.27;5.03;;;;;;;-143.21;66.70;71933.38;5069788;28;20225;-81
2023/09/04 07:29:34;;;;;;;5.37;4.77;;;;;;;-143.21;65.82;71931.38;5069937;28;20186;-86
2023/09/04 07:32:01;;;;;;;7.57;4.87;;;;;;;-143.21;66.00;71935.34;5072018;28;20199;-86
2023/09/04 07:34:28;;;;;;;4.83;4.33;;;;;;;-143.21;66.35;71955.19;5071455;28;20240;-85
2023/09/04 07:36:56;;;;;;;7.00;5.10;;;;;;;-143.21;66.90;71963.13;5070945;28;20672;-86
2023/09/04 07:39:23;;;;;;;5.30;4.80;;;;;;;-143.21;66.95;71957.16;5071634;28;20192;-86
2023/09/04 07:41:49;;;;;;;6.00;5.40;;;;;;;-143.21;67.14;71939.31;5071935;28;20200;-86
2023/09/04 07:44:16;;;;;;;9.00;7.00;;;;;;;-143.21;66.58;71935.34;5071930;28;20695;-86
2023/09/04 07:46:43;;;;;;;8.73;7.80;;;;;;;-143.21;66.20;71929.41;5072212;28;20217;-86
2023/09/04 07:49:12;;;;;;;7.40;6.50;;;;;;;-143.21;66.76;71935.34;5072394;28;20193;-86
2023/09/04 07:51:39;;;;;;;7.80;5.83;;;;;;;-143.21;66.97;71939.31;5071797;28;20223;-86
2023/09/04 07:54:07;;;;;;;8.80;4.77;;;;;;;-143.21;65.98;71941.31;5071585;28;20232;-86
2023/09/04 07:56:34;;;;;;;6.37;5.23;;;;;;;-143.21;67.08;71943.28;5071676;28;20193;-85
2023/09/04 07:59:01;;;;;;;5.57;4.80;;;;;;;-143.21;66.85;71917.50;5071506;28;20197;-85
2023/09/04 08:01:30;;;;;;;8.13;5.60;;;;;;;-143.21;65.49;71907.59;5071630;28;20197;-85
2023/09/04 08:03:57;;;;;;;9.23;5.60;;;;;;;-143.21;66.29;71917.50;5071046;28;20294;-86
2023/09/04 08:06:24;;;;;;;6.10;5.50;;;;;;;-143.21;65.69;71905.63;5071478;28;20630;-85
2023/09/04 08:08:52;;;;;;;6.60;5.50;;;;;;;-143.21;64.52;71899.66;5071681;28;20225;-85
2023/09/04 08:11:20;;;;;;;6.70;5.50;;;;;;;-143.21;64.33;71899.66;5071290;28;20201;-86
2023/09/04 08:13:47;;;;;;;8.53;5.87;;;;;;;-143.21;64.38;71887.78;5071344;28;20622;-86
2023/09/04 08:16:13;;;;;;;7.50;5.90;;;;;;;-143.21;63.67;71867.94;5071410;28;20691;-86
2023/09/04 08:18:40;;;;;;;8.90;6.17;;;;;;;-143.21;62.73;71848.09;5070984;28;20193;-86
2023/09/04 08:21:10;;;;;;;7.07;5.80;;;;;;;-143.21;61.96;71826.28;5071257;28;20992;-87
2023/09/04 08:23:40;;;;;;;6.47;5.70;;;;;;;-143.21;61.54;71818.38;5071390;28;20201;-86
2023/09/04 08:26:07;;;;;;;6.63;5.47;;;;;;;-143.21;61.27;71822.34;5071463;28;20664;-86
2023/09/04 08:28:35;;;;;;;7.97;5.57;;;;;;;-143.21;61.89;71824.31;5070874;28;20239;-85
2023/09/04 08:31:02;;;;;;;6.43;5.40;;;;;;;-143.21;61.43;71814.41;5071645;28;20247;-85
2023/09/04 08:33:29;;;;;;;14.35;6.10;;;;;;;-143.21;61.57;71802.50;5071354;28;20194;-86
2023/09/04 08:35:55;;;;;;;9.15;6.25;;;;;;;-143.21;61.28;71800.53;5071594;28;20208;-85
2023/09/04 08:38:22;;;;;;;7.68;5.90;;;;;;;-143.21;61.29;71798.53;5071519;28;20197;-86
2023/09/04 08:40:49;;;;;;;8.07;5.97;;;;;;;-143.21;60.90;71788.63;5071337;28;20204;-85
2023/09/04 08:43:17;;;;;;;9.07;6.10;;;;;;;-143.21;60.39;71778.72;5072072;28;20197;-86
2023/09/04 08:45:45;;;;;;;7.05;5.70;;;;;;;-143.21;60.72;71788.63;5071419;28;20197;-86
2023/09/04 08:48:13;;;;;;;8.15;5.43;;;;;;;-143.21;61.08;71784.66;5071171;28;20217;-86
2023/09/04 08:50:42;;;;;;;7.70;5.53;;;;;;;-143.21;61.01;71778.72;5071056;28;20622;-86
2023/09/04 08:53:10;;;;;;;9.50;5.63;;;;;;;-143.21;60.45;71764.81;5071835;28;20656;-86
2023/09/04 08:55:37;;;;;;;6.68;5.72;;;;;;;-143.21;60.24;71766.81;5071299;28;20201;-86
2023/09/04 08:58:06;;;;;;;6.75;5.85;;;;;;;-143.21;60.79;71794.56;5071228;28;20595;-86
2023/09/04 09:00:33;;;;;;;7.18;5.43;;;;;;;-143.21;60.91;71820.34;5070812;28;20238;-86
2023/09/04 09:03:03;;;;;;;6.57;5.22;;;;;;;-143.21;61.60;71838.19;5070481;28;20664;-85
2023/09/04 09:05:33;;;;;;;7.00;5.70;;;;;;;-143.21;62.33;71856.03;5070499;28;20648;-85
2023/09/04 09:08:01;;;;;;;6.63;5.60;;;;;;;-143.21;62.31;71846.13;5070902;28;20213;-86
2023/09/04 09:10:28;;;;;;;8.27;6.30;;;;;;;-143.21;62.50;71862.00;5071022;28;20209;-86
2023/09/04 09:12:56;;;;;;;9.93;6.30;;;;;;;-143.21;63.08;71883.81;5070949;28;20190;-86
2023/09/04 09:15:23;;;;;;;10.07;5.83;;;;;;;-143.21;63.59;71893.72;5071167;28;20280;-87
2023/09/04 09:17:54;;;;;;;9.30;6.63;;;;;;;-143.21;63.54;71909.56;5070976;28;20660;-87
2023/09/04 09:20:33;;;;;;;9.60;6.40;;;;;;;-143.21;64.09;71919.50;5071550;28;20184;-86
2023/09/04 09:23:00;;;;;;;14.47;6.30;;;;;;;-143.21;64.54;71919.50;5071218;28;20185;-87
2023/09/04 09:25:28;;;;;;;8.23;6.30;;;;;;;-143.21;64.77;71905.63;5074533;28;20193;-87
2023/09/04 09:28:01;;;;;;;6.87;6.13;;;;;;;-143.21;64.22;71899.66;5074304;28;20769;-87
2023/09/04 09:30:33;;;;;;;8.10;6.40;;;;;;;-143.21;64.39;71903.63;5074220;28;20727;-87
2023/09/04 09:32:59;;;;;;;8.90;6.50;;;;;;;-143.21;64.38;71909.56;5074311;28;20182;-88
2023/09/04 09:35:31;;;;;;;9.33;6.60;;;;;;;-143.21;64.64;71911.56;5074382;28;20558;-88
2023/09/04 09:37:59;;;;;;;8.73;7.00;;;;;;;-143.21;64.73;71923.47;5074163;28;20659;-87
2023/09/04 09:40:26;;;;;;;9.13;7.03;;;;;;;-143.21;65.27;71929.41;5074437;28;20750;-86
2023/09/04 09:42:53;;;;;;;9.43;6.90;;;;;;;-143.21;65.32;71923.47;5074476;28;20536;-87
2023/09/04 09:45:20;;;;;;;8.30;6.90;;;;;;;-143.21;64.88;71901.66;5074498;28;20212;-87
2023/09/04 09:47:50;;;;;;;8.67;6.77;;;;;;;-143.21;64.98;71903.63;5074768;28;20217;-87
2023/09/04 09:50:18;;;;;;;9.40;6.77;;;;;;;-143.21;65.50;71905.63;5073811;28;20193;-87
2023/09/04 09:52:57;;;;;;;13.10;7.30;;;;;;;-143.21;66.10;71913.53;5073831;28;20189;-87
2023/09/04 09:55:27;;;;;;;11.83;7.53;;;;;;;-143.21;66.13;71919.50;5076853;28;20213;-88
2023/09/04 09:57:54;;;;;;;8.10;7.27;;;;;;;-143.21;67.00;71929.41;5074056;28;20244;-87
2023/09/04 10:00:21;;;;;;;11.80;7.70;;;;;;;-143.21;68.06;71947.25;5073850;28;20205;-88
2023/09/04 10:02:48;;;;;;;9.50;7.77;;;;;;;-143.21;68.45;71949.25;5073459;28;20209;-86
2023/09/04 10:05:16;;;;;;;9.77;8.00;;;;;;;-143.21;68.79;71939.31;5074039;28;20178;-86
2023/09/04 10:07:47;;;;;;;10.97;8.23;;;;;;;-143.21;68.79;71951.22;5073759;28;20221;-87
2023/09/04 10:10:15;;;;;;;12.87;8.90;;;;;;;-143.21;70.83;71949.25;5066578;28;20706;-86
2023/09/04 10:12:49;;;;;;;13.10;9.13;;;;;;;-143.21;71.50;71945.28;5070671;28;20691;-87
2023/09/04 10:15:22;;;;;;;10.10;9.00;;;;;;;-143.21;73.05;71917.50;5073442;28;20205;-88
2023/09/04 10:17:58;;;;;;;15.37;9.53;;;;;;;-143.21;71.01;71911.56;5073794;28;20540;-87
2023/09/04 10:20:26;;;;;;;12.55;10.68;;;;;;;-143.21;70.75;71895.69;5073738;28;20651;-88
2023/09/04 10:23:01;;;;;;;14.27;11.00;;;;;;;-143.21;73.44;71889.75;5073669;28;20669;-88
2023/09/04 10:25:34;;;;;;;13.73;10.63;;;;;;;-143.21;75.37;71881.81;5073636;28;20200;-87
2023/09/04 10:28:09;;;;;;;10.67;9.57;;;;;;;-143.21;76.39;71873.88;5073462;28;20201;-89
2023/09/04 10:30:39;;;;;;;15.18;10.40;;;;;;;-143.21;75.60;71858.03;5073508;28;20208;-89
2023/09/04 10:33:08;;;;;;;13.23;10.13;;;;;;;-143.21;75.77;71862.00;5073864;28;20198;-87
2023/09/04 10:35:35;;;;;;;12.82;9.85;;;;;;;-143.21;75.20;71860.00;5075358;28;20198;-87
2023/09/04 10:38:03;;;;;;;10.97;9.33;;;;;;;-143.21;75.92;71854.06;5077400;28;20193;-88
2023/09/04 10:40:30;;;;;;;12.98;8.80;;;;;;;-143.21;75.63;71838.19;5073515;28;20682;-88
2023/09/04 10:43:03;;;;;;;9.00;7.63;;;;;;;-143.21;74.17;71828.28;5073054;28;20193;-88
2023/09/04 10:45:33;;;;;;;10.68;8.27;;;;;;;-143.21;74.20;71826.28;5073050;28;20203;-88
2023/09/04 10:48:01;;;;;;;9.70;8.60;;;;;;;-143.21;75.28;71828.28;5074154;28;20217;-86
2023/09/04 10:50:29;;;;;;;11.02;8.20;;;;;;;-143.21;75.08;71820.34;5072981;28;20232;-89
2023/09/04 10:52:56;;;;;;;10.27;8.18;;;;;;;-143.21;73.87;71812.41;5073040;28;20193;-89
2023/09/04 10:55:24;;;;;;;9.43;8.18;;;;;;;-143.21;74.68;71814.41;5072910;28;20193;-89
2023/09/04 10:57:55;;;;;;;9.60;8.20;;;;;;;-143.21;75.06;71812.41;5072638;28;20200;-89
2023/09/04 11:00:34;;;;;;;14.90;8.88;;;;;;;-143.21;74.86;71810.44;5073140;28;20228;-89
2023/09/04 11:03:15;;;;;;;10.55;8.80;;;;;;;-143.21;75.93;71812.41;5072964;28;20216;-87
2023/09/04 11:06:12;;;;;;;12.48;8.85;;;;;;;-143.21;76.26;71802.50;5073921;28;20279;-88
2023/09/04 11:08:50;;;;;;;11.57;7.78;;;;;;;-143.21;75.67;71810.44;5073083;28;20222;-89
2023/09/04 11:11:21;;;;;;;8.73;7.78;;;;;;;-143.21;75.55;71806.47;5072573;28;20702;-89
2023/09/04 11:13:56;;;;;;;11.68;7.45;;;;;;;-143.21;75.46;71794.56;5072317;28;20280;-89
2023/09/04 11:16:26;;;;;;;9.52;6.97;;;;;;;-143.21;74.96;71788.63;5072793;28;20189;-90
2023/09/04 11:19:07;;;;;;;9.80;7.43;;;;;;;-143.21;74.60;71788.63;5073279;28;20201;-90
2023/09/04 11:21:35;;;;;;;8.43;7.38;;;;;;;-143.21;74.99;71786.63;5073432;28;20201;-89